Pagrindinis puslapis
METAR-TAF:

METAR-TAF

Oro uostai :

Ubonratčathanis, Tailandas

platuma: 15-15N, ilguma: 104-52E, Aukštis: 123 m

Dabartinis oras

Ataskaita buvo paskelbta 1 valandą ir 1 minutes, ne 03:00 UTC
Vėjas 5 kt iš Pietų/Pietvakarių, svyruoja nuo Pietų/Pietryčių ir Vakarų/Pietvakarių
Temperatūra 32°C
Drėgmė 59%
Slėgis 1014 hPa
Matomumas: 8000 m

METAR: VTUU 020300Z 21005KT 150V250 8000 NSC 32/23 Q1014 NOSIG

Laikas: 11:01 (04:01 UTC)

Prognozė

Ataskaita buvo paskelbta 5 valandos ir 1 minutes, ne 23:00 UTC
Prognozė galioja nuo 02 metu 00 UTC su 02 metu 24 UTC
Vėjas 5 kt iš Pietų
Matomumas: 9000 m

TAF: VTUU 012300Z 0200/0224 19005KT 9000 NSC

Orai ataskaitas ir orų prognozės (METAR, TAF).

turimą stotys yra geltonos ir raudonos taškus žemėlapyje.

Perkelti pele per norėdami pamatyti stoties vardą.

Tada spustelėkite, norėdami matyti oro stebėjimo ir prognozės.

Norėdami pakeisti žemėlapį: spustelėkite ant žalios mygtukų su juodo kryžiaus žemyn,; žalią mygtuką su brūkšneliu, jei norite nutolinti; arba žalių rodyklių gretimoms žemėlapius.


METAR-TAF: